Weather observations for the past three days for
Midlothian/Waxahachie, Mid-Way Regional Airport
Imperial (Metric)
Date Time (cdt) Wind (mph) Vis. (mi.) Weather Sky Cond. Temperature (ºF) Relative Humidity Wind Chill (°F) Heat Index (°F) Pressure Precipitation (in)
Air Dwpt 6 hour altimeter (in) sea level (mb) 1 hr 3 hr 6 hr
Max. Min.
09 18:35 Vrbl 3 9.00 Fair CLR 86.5 65.5 50% 89 29.77 0.0
09 18:15 Vrbl 5 9.00 Fair CLR 87.3 64.2 46% 89 29.77 0.0
09 17:55 Calm 9.00 Fair CLR 87.8 62.6 43% 88 29.77 0.0
09 17:35 Calm 9.00 Fair CLR 88 62.2 42% 88 29.77 0.0
09 17:15 Calm 9.00 Fair CLR 87.8 60.4 40% 88 29.77 0.0
09 16:55 NW 5 9.00 Fair CLR 89.6 60.6 38% 89 29.77 0.0
09 16:35 Calm 9.00 Fair CLR 87.3 58.3 38% 86 29.78 0.0
09 16:15 N 3 9.00 Fair CLR 88.9 59.7 38% 88 29.79 0.0
09 15:55 Calm 9.00 Fair CLR 88.9 60.1 38% 89 29.8 0.0
09 15:35 NW 8 10.00 Fair CLR 88.7 59.4 37% 88 29.8 0.0
09 15:15 Vrbl 3 10.00 Fair CLR 88.3 57.4 35% 87 29.81 0.0
09 14:55 N 6 10.00 A Few Clouds FEW340 87.8 60.4 40% 88 29.82 0.0
09 14:35 Calm 10.00 Fair CLR 86.7 60.3 41% 87 29.82 0.0
09 14:15 NW 8 10.00 Fair CLR 87.1 62.2 43% 88 29.82 0.0
09 13:55 NW 9 10.00 A Few Clouds FEW330 86.4 61.9 44% 87 29.83 0.0
09 13:35 N 8 10.00 A Few Clouds FEW370 86.2 63.3 46% 87 29.83 0.0
09 13:15 N 10 10.00 A Few Clouds FEW360 85.6 63.9 48% 87 29.83 0.0
09 12:55 NW 8 10.00 A Few Clouds FEW370 85.6 64 85.6 67.6 49% 87 29.84 0.0
09 12:35 NW 12 10.00 Fair CLR 84.7 62.1 47% 85 29.85 0.0
09 12:15 NW 10 10.00 Fair CLR 85.1 62.2 46% 86 29.85 0.0
09 11:55 W 10 10.00 Fair CLR 84.4 61.5 46% 85 29.86 0.0
09 11:35 N 12 10.00 Fair CLR 83.3 61.5 48% 84 29.86 0.0
09 11:15 N 7 10.00 Fair CLR 82.2 63.3 53% 83 29.86 0.0
09 10:55 NW 12 10.00 Fair CLR 81.1 63 54% 82 29.86 0.0
09 10:35 NW 8 10.00 Fair CLR 81 63.3 55% 82 29.86 0.0
09 10:15 N 9 10.00 Fair CLR 79 65.5 63% 81 29.85 0.0
09 09:55 NW 9 10.00 Fair CLR 77 67.1 72% 79 29.85 0.0
09 09:35 NW 8 10.00 Fair CLR 76.3 67.1 73% 78 29.85 0.0
09 09:15 NW 10 10.00 Fair CLR 75.7 66.7 74% 77 29.85 0.0
09 08:55 NW 8 10.00 Fair CLR 74.3 68.2 81% 29.85 0.0
09 08:35 NW 13 10.00 Fair CLR 73.4 68 83% 29.85 0.0
09 08:15 NW 5 10.00 Fair CLR 72.5 69.8 91% 29.84 0.0
09 07:55 Calm 10.00 Fair CLR 69.1 69.1 100% 29.83 0.0
09 07:35 Calm 8.00 Fair CLR 68 68 100% 29.83 0.0
09 07:15 Calm 8.00 Fair CLR 68 67.6 99% 29.84 0.0
09 06:55 NW 3 8.00 Fair CLR 68.5 68 70.5 66.4 98% 29.84 0.0
09 06:35 SW 3 10.00 A Few Clouds FEW021 69.6 68.4 96% 29.84 0.0
09 06:15 W 5 10.00 Mostly Cloudy SCT009 BKN018 70.5 69.1 95% 29.83 0.0
09 05:55 NW 9 G 18 8.00 Overcast OVC006 69.6 69.4 99% 29.83 0.0
09 05:35 Vrbl 7 10.00 Overcast OVC006 69.1 69.1 100% 29.8 0.0
09 05:15 S 9 9.00 Overcast OVC006 68.7 68.7 100% 29.77 0.0
09 04:55 S 13 10.00 Partly Cloudy SCT006 69.1 68.7 99% 29.76 0.0
09 04:35 S 10 G 17 9.00 Fair CLR 68.4 68 99% 29.76 0.0
09 04:15 S 12 9.00 Fair CLR 68.4 68 99% 29.76 0.0
09 03:55 S 9 9.00 Fair CLR 68.4 68 99% 29.79 0.0
09 03:35 S 8 9.00 Fair CLR 67.6 67.3 99% 29.81 0.0
09 03:15 S 8 8.00 A Few Clouds FEW015 68.9 68.2 98% 29.83 0.0
09 02:55 SW 6 9.00 Partly Cloudy SCT020 69.1 68.4 98% 29.88 0.0
09 02:35 W 5 8.00 Partly Cloudy SCT017 SCT023 68.7 68.5 99% 29.87 0.0
09 02:15 W 5 9.00 Mostly Cloudy SCT015 BKN021 68.4 68 99% 29.87 0.0
09 01:55 NW 3 8.00 Overcast OVC015 68.5 68.4 99% 29.88 0.0
09 01:35 Calm 8.00 Mostly Cloudy BKN015 68 68 100% 29.87 0.0
09 01:15 N 7 7.00 A Few Clouds FEW015 66.7 66.6 99% 29.87 0.0
09 00:55 Calm 9.00 Fair CLR 68.9 68.2 73.9 68.9 98% 29.84 0.0
09 00:35 Calm 10.00 Fair CLR 69.3 68.4 97% 29.85 0.0
09 00:15 S 5 10.00 Fair CLR 69.8 68.2 95% 29.84 0.0
08 23:55 Calm 10.00 Fair CLR 69.8 68.4 95% 29.86 0.0
08 23:35 Calm 10.00 Fair CLR 70.7 68.7 93% 29.85 0.0
08 23:15 Calm 10.00 Partly Cloudy SCT019 70.7 68.5 93% 29.85 0.0
08 22:55 SE 3 10.00 Overcast OVC017 72 68.7 90% 29.85 0.0
08 22:35 Calm 10.00 Overcast OVC017 72 68.5 89% 29.84 0.0
08 22:15 SE 3 10.00 Overcast OVC016 72 68.5 89% 29.83 0.0
08 21:55 SE 3 10.00 Overcast OVC018 71.6 68.2 89% 29.82 0.0
08 21:35 Calm 10.00 Overcast OVC018 71.6 68.2 89% 29.82 0.0
08 21:15 Calm 10.00 Overcast OVC019 71.6 68 88% 29.81 0.0
08 20:55 SE 5 10.00 Overcast OVC020 72 67.8 87% 29.81 0.0
08 20:35 Calm 10.00 Overcast OVC020 72 68 87% 29.81 0.0
08 20:15 S 3 8.00 Overcast OVC021 72.7 67.8 85% 29.8 0.0
08 19:55 S 6 8.00 Mostly Cloudy BKN020 72.9 67.8 84% 29.79 0.0
08 19:35 S 3 8.00 A Few Clouds FEW021 73 67.8 84% 29.79 0.0
08 19:15 Calm 9.00 Fair CLR 73.6 67.8 82% 29.79 0.0
08 18:55 S 5 9.00 Fair CLR 73.9 67.6 74.5 67.8 81% 29.79 0.0
08 18:35 S 8 9.00 Fair CLR 74.1 67.5 80% 29.79 0.0
08 18:15 S 8 9.00 Fair CLR 73.8 67.3 80% 29.79 0.0
08 17:55 SE 8 10.00 Fair CLR 73.4 66.7 80% 29.79 0.0
08 17:35 Vrbl 5 9.00 A Few Clouds FEW026 74.1 66.9 78% 29.8 0.0
08 17:15 S 8 9.00 Partly Cloudy SCT027 73.9 66.2 77% 29.8 0.0
08 16:55 S 7 9.00 Fair CLR 73 65.3 77% 29.81 0.0
08 16:35 S 8 9.00 Fair CLR 72 65.3 80% 29.8 0.0
08 16:15 S 10 G 18 10.00 A Few Clouds FEW025 70.2 64.6 83% 29.81 0.0
08 15:55 E 5 9.00 Thunderstorm in Vicinity BKN025 67.8 62.8 84% 29.84 0.0
08 15:35 S 7 8.00 Light Rain BKN025 BKN032 68.7 62.6 81% 29.85 0.0
08 15:15 S 8 8.00 Light Rain BKN024 BKN031 69.6 62.2 78% 29.87 0.0
08 14:55 S 8 10.00 Mostly Cloudy BKN023 70.5 61.7 74% 29.86 0.0
08 14:35 S 7 10.00 Overcast OVC023 69.4 60.6 74% 29.87 0.0
08 14:15 S 6 10.00 Overcast OVC024 69.4 59.9 72% 29.88 0.0
08 13:55 S 9 10.00 Overcast OVC025 69.6 59.4 70% 29.88 0.0
08 13:35 S 6 10.00 Overcast OVC024 69.6 60.3 72% 29.89 0.0
08 13:15 S 9 10.00 Overcast OVC024 69.8 59.5 70% 29.91 0.0
08 12:55 SE 6 10.00 Overcast OVC024 69.6 59.5 69.6 55.4 70% 29.9 0.0
08 12:35 S 7 10.00 Overcast OVC024 69.3 58.8 70% 29.91 0.0
08 12:15 SE 9 10.00 Overcast OVC025 69.1 58.8 70% 29.92 0.0
08 11:55 SE 8 10.00 Mostly Cloudy BKN025 68.9 59.2 71% 29.93 0.0
08 11:35 Vrbl 5 10.00 Overcast OVC023 68.5 59.2 72% 29.93 0.0
08 11:15 Vrbl 3 10.00 Overcast OVC022 67.3 59.2 75% 29.95 0.0
08 10:55 Calm 10.00 Overcast OVC022 66.4 58.1 75% 29.96 0.0
08 10:35 Vrbl 3 10.00 Overcast OVC022 65.8 57.7 75% 29.97 0.0
08 10:15 SE 3 10.00 Overcast BKN022 OVC029 65.3 57.7 77% 29.97 0.0
08 09:55 Calm 10.00 Overcast OVC024 64.9 57.2 76% 29.97 0.0
08 09:35 Vrbl 3 10.00 Overcast OVC024 64.8 57.2 77% 29.97 0.0
08 09:15 Vrbl 3 10.00 Mostly Cloudy BKN023 BKN030 64.6 57.2 77% 29.96 0.0
08 08:55 Vrbl 3 10.00 A Few Clouds FEW031 64.2 58.5 82% 29.97 0.0
08 08:35 Vrbl 5 10.00 A Few Clouds FEW031 63 57.7 83% 29.98 0.0
08 08:15 Calm 10.00 Fair CLR 61.5 57.6 87% 29.98 0.0
08 07:55 Calm 10.00 Fair CLR 59.9 57.4 91% 29.98 0.0
08 07:35 Calm 9.00 Fair CLR 58.8 57.7 96% 29.98 0.0
08 07:15 Calm 10.00 Fair CLR 56.3 56.3 100% 29.96 0.0
08 06:55 Calm 8.00 Fair CLR 55.8 55.8 59 55.2 100% 29.97 0.0
08 06:35 Calm 9.00 A Few Clouds FEW130 56.1 56.1 100% 29.96 0.0
08 06:15 Calm 10.00 Mostly Cloudy FEW100 BKN130 56.3 56.3 100% 29.97 0.0
08 05:55 S 3 10.00 A Few Clouds FEW100 55.4 55.4 100% 29.97 0.0
08 05:35 S 3 10.00 Fair CLR 55.9 55.9 100% 29.96 0.0
08 05:15 S 3 10.00 Fair CLR 55.8 55.4 99% 29.96 0.0
08 04:55 E 3 9.00 Fair CLR 56.8 56.7 99% 29.96 0.0
08 04:35 Calm 9.00 Fair CLR 57.6 56.8 97% 29.97 0.0
08 04:15 SE 5 9.00 A Few Clouds FEW095 58.8 57.6 96% 29.96 0.0
08 03:55 Calm 9.00 A Few Clouds FEW090 58.6 57.4 96% 29.96 0.0
08 03:35 NE 3 9.00 A Few Clouds FEW080 58.1 57 96% 29.97 0.0
08 03:15 Calm 10.00 Partly Cloudy SCT080 58.1 57.4 97% 29.98 0.0
08 02:55 Calm 9.00 Mostly Cloudy BKN080 57.7 57.2 98% 30 0.0
08 02:35 Calm 9.00 Partly Cloudy SCT080 56.8 56.3 98% 29.99 0.0
08 02:15 Calm 9.00 A Few Clouds FEW095 56.5 56.5 100% 29.98 0.0
08 01:55 Calm 10.00 A Few Clouds FEW080 56.5 56.3 99% 29.98 0.0
08 01:35 Calm 9.00 Fair CLR 56.7 56.5 99% 29.99 0.0
08 01:15 Calm 10.00 Fair CLR 57 56.5 98% 30 0.0
08 00:55 Calm 10.00 Fair CLR 57.6 56.7 65.1 56.5 97% 30.01 0.0
08 00:35 Calm 9.00 Fair CLR 57.2 56.7 98% 30.01 0.0
08 00:15 Calm 10.00 Fair CLR 56.5 55.9 98% 30.01 0.0
07 23:55 Calm 10.00 Fair CLR 57.4 56.7 97% 30.01 0.0
07 23:35 Calm 10.00 Fair CLR 57.9 56.8 96% 30.01 0.0
07 23:15 Calm 10.00 Fair CLR 58.6 56.5 93% 30.01 0.0
07 22:55 Calm 10.00 Fair CLR 59.5 56.1 89% 30.01 0.0
07 22:35 Calm 10.00 Fair CLR 60.1 56.1 87% 30 0.0
07 22:15 Calm 10.00 Fair CLR 60.8 55.8 84% 29.99 0.0
07 21:55 Calm 10.00 A Few Clouds FEW130 61.2 56.5 85% 29.98 0.0
07 21:35 E 3 9.00 A Few Clouds FEW260 60.4 56.3 86% 29.98 0.0
07 21:15 Calm 10.00 Fair CLR 60.8 56.3 85% 29.99 0.0
07 20:55 Calm 10.00 Fair CLR 61.9 55.8 80% 29.98 0.0
07 20:35 Calm 9.00 Fair CLR 62.1 56.1 81% 29.98 0.0
07 20:15 Calm 9.00 A Few Clouds FEW140 61.7 56.7 84% 29.98 0.0
07 19:55 Calm 9.00 A Few Clouds FEW140 62.6 57.9 85% 29.98 0.0
07 19:35 Calm 9.00 A Few Clouds FEW150 63.7 60.3 89% 29.98 0.0
07 19:15 Calm 9.00 Fair CLR 64.6 57 77% 29.98 0.0
07 18:55 S 3 9.00 Fair CLR 66.2 56.3 69.3 65.5 71% 30 0.0
07 18:35 Calm 9.00 Fair CLR 65.8 54.1 66% 29.98 0.0
07 18:15 Calm 8.00 Fair CLR 65.7 56.7 73% 29.99 0.0
07 17:55 Calm 9.00 Fair CLR 66.4 54 64% 29.99 0.0
07 17:35 Calm 9.00 A Few Clouds FEW370 66.7 52.7 61% 30 0.0
07 17:15 Calm 9.00 Fair CLR 67.3 52 58% 30.01 0.0
07 16:55 Calm 10.00 Fair CLR 67.5 51.8 57% 30 0.0
07 16:35 Calm 10.00 Fair CLR 67.3 52 58% 30.01 0.0
07 16:15 Calm 10.00 A Few Clouds FEW380 66.9 50.4 55% 30.02 0.0
07 15:15 Vrbl 3 10.00 A Few Clouds FEW310 67.8 51.1 55% 30.03 0.0
07 14:55 Calm 10.00 A Few Clouds FEW340 67.8 50.2 53% 30.03 0.0
07 14:35 Calm 10.00 A Few Clouds FEW290 68 50.7 54% 30.04 0.0
07 14:15 Vrbl 3 10.00 A Few Clouds FEW280 68.5 51.1 54% 30.06 0.0
07 13:55 NE 7 10.00 Partly Cloudy FEW250 SCT360 67.8 49.3 52% 30.07 0.0
07 13:35 NE 6 10.00 Partly Cloudy FEW260 SCT360 68.2 49.6 52% 30.06 0.0
07 13:15 NE 8 10.00 Partly Cloudy FEW280 SCT330 68 49.1 51% 30.05 0.0
07 12:55 NE 9 10.00 Partly Cloudy FEW280 SCT370 69.1 51.6 69.3 50.9 54% 30.06 0.0
07 12:35 Vrbl 6 10.00 Partly Cloudy FEW270 SCT370 69.3 51.4 53% 30.07 0.0
07 12:15 N 9 10.00 A Few Clouds FEW270 68.4 51.8 56% 30.08 0.0
07 11:55 NE 7 10.00 A Few Clouds FEW280 66.7 53.2 62% 30.09 0.0
07 11:35 Vrbl 7 10.00 A Few Clouds FEW250 66 52.5 62% 30.11 0.0
07 11:15 NE 8 10.00 A Few Clouds FEW350 64.8 51.3 62% 30.11 0.0
07 10:55 NE 7 10.00 A Few Clouds FEW280 63.9 52.3 66% 30.11 0.0
07 10:35 NE 8 10.00 Fair CLR 63.5 52.7 68% 30.11 0.0
07 10:15 N 8 10.00 Fair CLR 62.8 52 68% 30.11 0.0
07 09:55 N 6 10.00 Fair CLR 60.1 52 75% 30.12 0.0
07 09:35 N 6 10.00 Fair CLR 59.7 52.2 76% 30.12 0.0
07 09:15 NE 7 10.00 Fair CLR 58.1 51.6 79% 30.13 0.0
07 08:55 N 5 10.00 Fair CLR 57.6 52 82% 30.12 0.0
07 08:35 Vrbl 3 10.00 Fair CLR 56.8 52.5 86% 30.13 0.0
07 08:15 N 5 9.00 Fair CLR 55.2 52.9 92% 30.14 0.0
07 07:55 Calm 10.00 Fair CLR 53.1 52.3 97% 30.13 0.0
07 07:35 Calm 9.00 Fair CLR 52 51.4 98% 30.13 0.0
07 07:15 N 3 9.00 Fair CLR 51.4 50.9 98% 30.14 0.0
07 06:55 Calm 10.00 Fair CLR 50.7 50.4 56.5 50 99% 30.14 0.0
07 06:35 Calm 9.00 Fair CLR 51.1 50.5 98% 30.13 0.0
07 06:15 N 6 10.00 Fair CLR 50.9 50.5 99% 30.11 0.0
07 05:55 NW 3 10.00 Fair CLR 50.4 49.8 98% 30.1 0.0
07 05:35 Calm 10.00 Fair CLR 50.9 50.4 98% 30.09 0.0
07 05:15 N 6 10.00 Fair CLR 51.3 50 95% 30.08 0.0
07 04:55 NE 3 10.00 Fair CLR 52.9 51.3 94% 30.06 0.0
07 04:35 NE 5 10.00 Fair CLR 52.9 51.6 96% 30.05 0.0
07 04:15 NE 5 10.00 Fair CLR 53.1 52 96% 30.05 0.0
07 03:55 N 6 10.00 Fair CLR 53.8 52.3 95% 30.05 0.0
07 03:35 NE 6 10.00 A Few Clouds FEW013 54 52.5 95% 30.04 0.0
07 03:15 NE 7 10.00 Mostly Cloudy BKN011 54.7 52.9 94% 30.05 0.0
07 02:55 NE 6 10.00 Overcast OVC010 55.2 53.2 93% 30.04 0.0
07 02:35 NE 7 10.00 Mostly Cloudy BKN010 54.9 53.2 94% 30.03 0.0
07 02:15 NE 6 10.00 Fair CLR 54.7 52.7 93% 30.02 0.0
07 01:55 NE 7 10.00 Fair CLR 55.2 52.2 90% 30.02 0.0
07 01:35 NE 7 10.00 A Few Clouds FEW260 55.4 51.8 88% 30.03 0.0
07 01:15 NE 8 10.00 A Few Clouds FEW260 55.8 51.6 86% 30.03 0.0
07 00:55 NE 7 10.00 Mostly Cloudy BKN024 56.7 52 61.2 56.7 84% 30.03 0.0
07 00:35 NE 7 10.00 Partly Cloudy SCT024 57.2 52 83% 30.03 0.0
07 00:15 NE 8 10.00 A Few Clouds FEW025 57.2 52.3 84% 30.03 0.0
06 23:55 NE 8 10.00 Mostly Cloudy BKN025 57.7 52.5 83% 30.03 0.0
06 23:35 NE 8 10.00 Overcast OVC024 57.9 53.1 84% 30.04 0.0
06 23:15 NE 10 10.00 Overcast OVC023 58.3 53.1 83% 30.04 0.0
06 22:55 Vrbl 7 10.00 Overcast SCT016 OVC022 58.5 53.8 85% 30.04 0.0
06 22:35 NE 8 10.00 Overcast OVC016 58.6 54.1 85% 30.04 0.0
06 22:15 N 9 10.00 Overcast OVC019 58.6 54.7 87% 30.04 0.0
06 21:55 NE 8 10.00 Overcast OVC024 58.3 54.9 88% 30.02 0.0
06 21:35 N 9 10.00 Overcast OVC025 58.3 54.7 88% 30.01 0.0
06 21:15 NE 7 10.00 Overcast OVC026 58.3 55 89% 30.01 0.0
06 20:55 NE 8 10.00 Overcast OVC026 58.3 54.9 88% 29.99 0.0
06 20:35 NE 6 10.00 Overcast OVC026 58.5 54.9 88% 29.98 0.0
06 20:15 NE 7 9.00 Overcast OVC025 58.3 55.6 91% 29.96 0.0
06 19:55 NE 6 8.00 Light Rain BKN024 OVC046 58.6 55.2 89% 29.96 0.0
06 19:35 NE 6 8.00 Light Rain BKN024 OVC046 59.2 55.4 87% 29.96 0.0
06 19:15 NE 5 10.00 Overcast BKN023 OVC045 60.4 54.3 80% 29.96 0.0
06 18:55 N 9 10.00 Overcast SCT023 OVC044 61.2 54 61.3 56.8 77% 29.95 0.0
Date Time (cdt) Wind (mph) Vis. (mi.) Weather Sky Cond. Air Dwpt Max. Min. Relative Humidity Wind Chill (°F) Heat Index (°F) altimeter (in) sea level (mb) 1 hr 3 hr 6 hr
6 hour
Temperature (ºF) Pressure Precipitation (in)